sensor_id;sensor_type;location;lat;lon;timestamp;P1;durP1;ratioP1;P2;durP2;ratioP2
9675;SDS011;4876;42.656;23.292;2022-07-03T00:01:27;11.33;;;7.60;;
9675;SDS011;4876;42.656;23.292;2022-07-03T00:03:54;9.63;;;7.17;;
9675;SDS011;4876;42.656;23.292;2022-07-03T00:06:21;9.20;;;7.63;;
9675;SDS011;4876;42.656;23.292;2022-07-03T00:08:48;10.30;;;8.00;;
9675;SDS011;4876;42.656;23.292;2022-07-03T00:11:16;11.73;;;8.43;;
9675;SDS011;4876;42.656;23.292;2022-07-03T00:13:43;11.87;;;7.60;;
9675;SDS011;4876;42.656;23.292;2022-07-03T00:16:10;9.97;;;8.20;;
9675;SDS011;4876;42.656;23.292;2022-07-03T00:18:37;10.60;;;8.20;;
9675;SDS011;4876;42.656;23.292;2022-07-03T00:21:05;11.10;;;8.13;;
9675;SDS011;4876;42.656;23.292;2022-07-03T00:23:36;9.67;;;8.07;;
9675;SDS011;4876;42.656;23.292;2022-07-03T00:26:07;9.83;;;7.90;;
9675;SDS011;4876;42.656;23.292;2022-07-03T00:28:36;10.47;;;7.90;;
9675;SDS011;4876;42.656;23.292;2022-07-03T00:31:04;8.83;;;7.90;;
9675;SDS011;4876;42.656;23.292;2022-07-03T00:33:32;11.70;;;8.13;;
9675;SDS011;4876;42.656;23.292;2022-07-03T00:36:00;10.33;;;7.50;;
9675;SDS011;4876;42.656;23.292;2022-07-03T00:38:28;9.47;;;7.97;;
9675;SDS011;4876;42.656;23.292;2022-07-03T00:40:55;12.47;;;7.50;;
9675;SDS011;4876;42.656;23.292;2022-07-03T00:43:22;11.10;;;8.30;;
9675;SDS011;4876;42.656;23.292;2022-07-03T00:45:53;10.10;;;8.17;;
9675;SDS011;4876;42.656;23.292;2022-07-03T00:48:20;14.20;;;8.67;;
9675;SDS011;4876;42.656;23.292;2022-07-03T00:50:48;18.30;;;8.23;;
9675;SDS011;4876;42.656;23.292;2022-07-03T00:53:17;9.63;;;8.37;;
9675;SDS011;4876;42.656;23.292;2022-07-03T00:55:47;14.30;;;8.60;;
9675;SDS011;4876;42.656;23.292;2022-07-03T00:58:15;14.80;;;8.80;;
9675;SDS011;4876;42.656;23.292;2022-07-03T01:00:43;10.90;;;8.73;;
9675;SDS011;4876;42.656;23.292;2022-07-03T01:03:13;8.93;;;8.03;;
9675;SDS011;4876;42.656;23.292;2022-07-03T01:05:43;10.27;;;8.57;;
9675;SDS011;4876;42.656;23.292;2022-07-03T01:08:12;15.30;;;9.40;;
9675;SDS011;4876;42.656;23.292;2022-07-03T01:10:49;11.17;;;9.07;;
9675;SDS011;4876;42.656;23.292;2022-07-03T01:13:24;10.90;;;8.90;;
9675;SDS011;4876;42.656;23.292;2022-07-03T01:15:58;10.17;;;9.07;;
9675;SDS011;4876;42.656;23.292;2022-07-03T01:18:38;13.17;;;8.70;;
9675;SDS011;4876;42.656;23.292;2022-07-03T01:21:15;11.13;;;9.63;;
9675;SDS011;4876;42.656;23.292;2022-07-03T01:27:07;13.93;;;9.60;;
9675;SDS011;4876;42.656;23.292;2022-07-03T01:29:38;12.23;;;10.10;;
9675;SDS011;4876;42.656;23.292;2022-07-03T01:32:17;9.10;;;7.97;;
9675;SDS011;4876;42.656;23.292;2022-07-03T01:34:50;13.13;;;11.00;;
9675;SDS011;4876;42.656;23.292;2022-07-03T01:37:19;17.87;;;9.73;;
9675;SDS011;4876;42.656;23.292;2022-07-03T01:39:49;9.50;;;8.30;;
9675;SDS011;4876;42.656;23.292;2022-07-03T01:42:20;15.07;;;8.90;;
9675;SDS011;4876;42.656;23.292;2022-07-03T01:44:50;10.10;;;8.73;;
9675;SDS011;4876;42.656;23.292;2022-07-03T01:47:18;12.60;;;9.10;;
9675;SDS011;4876;42.656;23.292;2022-07-03T01:49:45;10.37;;;8.90;;
9675;SDS011;4876;42.656;23.292;2022-07-03T01:52:14;12.00;;;8.83;;
9675;SDS011;4876;42.656;23.292;2022-07-03T01:54:42;10.37;;;8.67;;
9675;SDS011;4876;42.656;23.292;2022-07-03T01:57:12;9.83;;;8.87;;
9675;SDS011;4876;42.656;23.292;2022-07-03T01:59:40;13.93;;;9.00;;
9675;SDS011;4876;42.656;23.292;2022-07-03T02:02:09;13.53;;;9.43;;
9675;SDS011;4876;42.656;23.292;2022-07-03T02:04:58;10.47;;;8.00;;
9675;SDS011;4876;42.656;23.292;2022-07-03T02:07:31;11.20;;;8.60;;
9675;SDS011;4876;42.656;23.292;2022-07-03T02:10:06;11.37;;;8.77;;
9675;SDS011;4876;42.656;23.292;2022-07-03T02:12:36;13.20;;;8.93;;
9675;SDS011;4876;42.656;23.292;2022-07-03T02:15:08;9.87;;;8.53;;
9675;SDS011;4876;42.656;23.292;2022-07-03T02:17:37;17.67;;;9.57;;
9675;SDS011;4876;42.656;23.292;2022-07-03T02:20:06;14.30;;;8.70;;
9675;SDS011;4876;42.656;23.292;2022-07-03T02:22:34;9.40;;;8.13;;
9675;SDS011;4876;42.656;23.292;2022-07-03T02:25:03;10.37;;;9.23;;
9675;SDS011;4876;42.656;23.292;2022-07-03T02:27:32;9.53;;;8.60;;
9675;SDS011;4876;42.656;23.292;2022-07-03T02:30:06;15.17;;;9.37;;
9675;SDS011;4876;42.656;23.292;2022-07-03T02:32:36;9.77;;;8.77;;
9675;SDS011;4876;42.656;23.292;2022-07-03T02:35:07;10.80;;;8.97;;
9675;SDS011;4876;42.656;23.292;2022-07-03T02:37:39;9.60;;;8.60;;
9675;SDS011;4876;42.656;23.292;2022-07-03T02:40:14;9.53;;;8.33;;
9675;SDS011;4876;42.656;23.292;2022-07-03T02:42:48;10.90;;;8.97;;
9675;SDS011;4876;42.656;23.292;2022-07-03T02:45:29;10.43;;;9.33;;
9675;SDS011;4876;42.656;23.292;2022-07-03T02:48:05;12.67;;;9.17;;
9675;SDS011;4876;42.656;23.292;2022-07-03T02:50:38;13.93;;;9.23;;
9675;SDS011;4876;42.656;23.292;2022-07-03T02:53:08;13.13;;;8.73;;
9675;SDS011;4876;42.656;23.292;2022-07-03T02:55:42;9.87;;;8.30;;
9675;SDS011;4876;42.656;23.292;2022-07-03T03:01:13;10.77;;;8.07;;
9675;SDS011;4876;42.656;23.292;2022-07-03T03:03:50;13.00;;;8.50;;
9675;SDS011;4876;42.656;23.292;2022-07-03T03:06:24;16.53;;;8.57;;
9675;SDS011;4876;42.656;23.292;2022-07-03T03:08:56;13.10;;;8.67;;
9675;SDS011;4876;42.656;23.292;2022-07-03T03:11:29;9.90;;;7.97;;
9675;SDS011;4876;42.656;23.292;2022-07-03T03:14:05;10.87;;;9.50;;
9675;SDS011;4876;42.656;23.292;2022-07-03T03:16:36;9.20;;;8.30;;
9675;SDS011;4876;42.656;23.292;2022-07-03T03:19:12;10.03;;;8.70;;
9675;SDS011;4876;42.656;23.292;2022-07-03T03:21:42;12.00;;;8.57;;
9675;SDS011;4876;42.656;23.292;2022-07-03T03:24:17;9.50;;;8.50;;
9675;SDS011;4876;42.656;23.292;2022-07-03T03:26:44;12.27;;;9.67;;
9675;SDS011;4876;42.656;23.292;2022-07-03T03:29:11;10.10;;;9.00;;
9675;SDS011;4876;42.656;23.292;2022-07-03T03:31:40;10.87;;;8.77;;
9675;SDS011;4876;42.656;23.292;2022-07-03T03:34:07;11.50;;;9.03;;
9675;SDS011;4876;42.656;23.292;2022-07-03T03:36:35;13.77;;;8.43;;
9675;SDS011;4876;42.656;23.292;2022-07-03T03:39:02;10.43;;;9.33;;
9675;SDS011;4876;42.656;23.292;2022-07-03T03:41:29;12.50;;;8.27;;
9675;SDS011;4876;42.656;23.292;2022-07-03T03:43:56;14.80;;;7.87;;
9675;SDS011;4876;42.656;23.292;2022-07-03T03:46:23;10.53;;;8.33;;
9675;SDS011;4876;42.656;23.292;2022-07-03T03:48:51;11.90;;;8.43;;
9675;SDS011;4876;42.656;23.292;2022-07-03T03:51:18;11.23;;;7.73;;
9675;SDS011;4876;42.656;23.292;2022-07-03T03:53:45;9.37;;;7.90;;
9675;SDS011;4876;42.656;23.292;2022-07-03T03:56:12;12.43;;;8.20;;
9675;SDS011;4876;42.656;23.292;2022-07-03T03:58:40;9.83;;;8.43;;
9675;SDS011;4876;42.656;23.292;2022-07-03T04:01:08;11.47;;;8.00;;
9675;SDS011;4876;42.656;23.292;2022-07-03T04:03:36;10.83;;;8.80;;
9675;SDS011;4876;42.656;23.292;2022-07-03T04:06:05;9.73;;;8.57;;
9675;SDS011;4876;42.656;23.292;2022-07-03T04:08:32;12.37;;;8.83;;
9675;SDS011;4876;42.656;23.292;2022-07-03T04:10:59;10.50;;;8.23;;
9675;SDS011;4876;42.656;23.292;2022-07-03T04:13:26;9.77;;;8.67;;
9675;SDS011;4876;42.656;23.292;2022-07-03T04:15:54;11.77;;;8.97;;
9675;SDS011;4876;42.656;23.292;2022-07-03T04:18:21;12.27;;;8.43;;
9675;SDS011;4876;42.656;23.292;2022-07-03T04:20:48;14.13;;;8.23;;
9675;SDS011;4876;42.656;23.292;2022-07-03T04:23:16;9.20;;;8.23;;
9675;SDS011;4876;42.656;23.292;2022-07-03T04:25:43;8.80;;;7.90;;
9675;SDS011;4876;42.656;23.292;2022-07-03T04:28:10;10.03;;;8.93;;
9675;SDS011;4876;42.656;23.292;2022-07-03T04:30:37;11.03;;;8.83;;
9675;SDS011;4876;42.656;23.292;2022-07-03T04:33:04;11.13;;;8.93;;
9675;SDS011;4876;42.656;23.292;2022-07-03T04:35:31;10.57;;;9.02;;
9675;SDS011;4876;42.656;23.292;2022-07-03T04:37:58;14.77;;;8.57;;
9675;SDS011;4876;42.656;23.292;2022-07-03T04:40:26;12.13;;;8.63;;
9675;SDS011;4876;42.656;23.292;2022-07-03T04:42:53;9.75;;;8.73;;
9675;SDS011;4876;42.656;23.292;2022-07-03T04:45:20;8.90;;;7.90;;
9675;SDS011;4876;42.656;23.292;2022-07-03T04:47:47;8.93;;;7.35;;
9675;SDS011;4876;42.656;23.292;2022-07-03T04:50:14;8.85;;;7.88;;
9675;SDS011;4876;42.656;23.292;2022-07-03T04:52:41;12.13;;;8.07;;
9675;SDS011;4876;42.656;23.292;2022-07-03T04:55:08;9.13;;;8.05;;
9675;SDS011;4876;42.656;23.292;2022-07-03T04:57:36;8.48;;;7.68;;
9675;SDS011;4876;42.656;23.292;2022-07-03T05:00:04;9.77;;;8.77;;
9675;SDS011;4876;42.656;23.292;2022-07-03T05:02:32;11.23;;;9.27;;
9675;SDS011;4876;42.656;23.292;2022-07-03T05:04:59;10.35;;;9.25;;
9675;SDS011;4876;42.656;23.292;2022-07-03T05:07:26;10.15;;;9.15;;
9675;SDS011;4876;42.656;23.292;2022-07-03T05:09:53;14.40;;;9.82;;
9675;SDS011;4876;42.656;23.292;2022-07-03T05:12:19;12.52;;;8.50;;
9675;SDS011;4876;42.656;23.292;2022-07-03T05:14:47;9.48;;;8.48;;
9675;SDS011;4876;42.656;23.292;2022-07-03T05:17:16;8.90;;;8.00;;
9675;SDS011;4876;42.656;23.292;2022-07-03T05:19:43;11.50;;;9.23;;
9675;SDS011;4876;42.656;23.292;2022-07-03T05:22:10;8.68;;;7.78;;
9675;SDS011;4876;42.656;23.292;2022-07-03T05:24:37;9.85;;;7.38;;
9675;SDS011;4876;42.656;23.292;2022-07-03T05:27:04;8.45;;;7.35;;
9675;SDS011;4876;42.656;23.292;2022-07-03T05:29:31;11.38;;;8.00;;
9675;SDS011;4876;42.656;23.292;2022-07-03T05:31:59;8.10;;;7.30;;
9675;SDS011;4876;42.656;23.292;2022-07-03T05:34:26;10.95;;;8.45;;
9675;SDS011;4876;42.656;23.292;2022-07-03T05:36:52;8.13;;;7.32;;
9675;SDS011;4876;42.656;23.292;2022-07-03T05:39:21;8.15;;;7.38;;
9675;SDS011;4876;42.656;23.292;2022-07-03T05:42:03;8.68;;;7.22;;
9675;SDS011;4876;42.656;23.292;2022-07-03T05:44:30;11.43;;;7.68;;
9675;SDS011;4876;42.656;23.292;2022-07-03T05:46:58;11.77;;;8.27;;
9675;SDS011;4876;42.656;23.292;2022-07-03T05:49:25;8.60;;;7.80;;
9675;SDS011;4876;42.656;23.292;2022-07-03T05:51:52;8.23;;;7.35;;
9675;SDS011;4876;42.656;23.292;2022-07-03T05:54:20;12.00;;;7.82;;
9675;SDS011;4876;42.656;23.292;2022-07-03T05:56:46;9.50;;;8.38;;
9675;SDS011;4876;42.656;23.292;2022-07-03T05:59:13;8.68;;;7.50;;
9675;SDS011;4876;42.656;23.292;2022-07-03T06:01:40;8.05;;;7.25;;
9675;SDS011;4876;42.656;23.292;2022-07-03T06:04:08;10.35;;;7.75;;
9675;SDS011;4876;42.656;23.292;2022-07-03T06:06:35;9.23;;;8.27;;
9675;SDS011;4876;42.656;23.292;2022-07-03T06:09:02;8.60;;;7.57;;
9675;SDS011;4876;42.656;23.292;2022-07-03T06:11:29;7.90;;;7.13;;
9675;SDS011;4876;42.656;23.292;2022-07-03T06:13:56;14.40;;;7.82;;
9675;SDS011;4876;42.656;23.292;2022-07-03T06:16:22;11.88;;;8.05;;
9675;SDS011;4876;42.656;23.292;2022-07-03T06:18:49;12.75;;;7.93;;
9675;SDS011;4876;42.656;23.292;2022-07-03T06:21:18;11.40;;;7.88;;
9675;SDS011;4876;42.656;23.292;2022-07-03T06:23:45;8.50;;;6.75;;
9675;SDS011;4876;42.656;23.292;2022-07-03T06:26:11;12.63;;;8.18;;
9675;SDS011;4876;42.656;23.292;2022-07-03T06:28:39;9.65;;;8.05;;
9675;SDS011;4876;42.656;23.292;2022-07-03T06:31:06;10.15;;;8.73;;
9675;SDS011;4876;42.656;23.292;2022-07-03T06:33:33;10.07;;;8.05;;
9675;SDS011;4876;42.656;23.292;2022-07-03T06:36:00;9.30;;;7.75;;
9675;SDS011;4876;42.656;23.292;2022-07-03T06:38:28;7.80;;;7.05;;
9675;SDS011;4876;42.656;23.292;2022-07-03T06:40:54;9.25;;;8.35;;
9675;SDS011;4876;42.656;23.292;2022-07-03T06:43:21;8.80;;;7.88;;
9675;SDS011;4876;42.656;23.292;2022-07-03T06:45:48;13.57;;;8.63;;
9675;SDS011;4876;42.656;23.292;2022-07-03T06:48:15;8.93;;;8.05;;
9675;SDS011;4876;42.656;23.292;2022-07-03T06:50:41;8.32;;;7.53;;
9675;SDS011;4876;42.656;23.292;2022-07-03T06:53:08;11.77;;;8.23;;
9675;SDS011;4876;42.656;23.292;2022-07-03T06:55:37;9.15;;;8.25;;
9675;SDS011;4876;42.656;23.292;2022-07-03T06:58:03;9.57;;;7.47;;
9675;SDS011;4876;42.656;23.292;2022-07-03T07:00:30;14.27;;;8.88;;
9675;SDS011;4876;42.656;23.292;2022-07-03T07:02:57;8.70;;;7.57;;
9675;SDS011;4876;42.656;23.292;2022-07-03T07:05:24;10.75;;;7.50;;
9675;SDS011;4876;42.656;23.292;2022-07-03T07:07:50;8.30;;;7.50;;
9675;SDS011;4876;42.656;23.292;2022-07-03T07:10:17;12.00;;;7.75;;
9675;SDS011;4876;42.656;23.292;2022-07-03T07:12:45;10.50;;;8.23;;
9675;SDS011;4876;42.656;23.292;2022-07-03T07:15:12;8.60;;;7.80;;
9675;SDS011;4876;42.656;23.292;2022-07-03T07:17:39;9.00;;;7.88;;
9675;SDS011;4876;42.656;23.292;2022-07-03T07:20:06;11.18;;;8.25;;
9675;SDS011;4876;42.656;23.292;2022-07-03T07:22:34;9.10;;;8.07;;
9675;SDS011;4876;42.656;23.292;2022-07-03T07:25:01;10.20;;;7.88;;
9675;SDS011;4876;42.656;23.292;2022-07-03T07:27:28;12.82;;;7.68;;
9675;SDS011;4876;42.656;23.292;2022-07-03T07:29:56;12.93;;;7.75;;
9675;SDS011;4876;42.656;23.292;2022-07-03T07:32:23;10.13;;;8.00;;
9675;SDS011;4876;42.656;23.292;2022-07-03T07:34:50;9.00;;;7.60;;
9675;SDS011;4876;42.656;23.292;2022-07-03T07:37:16;12.60;;;7.95;;
9675;SDS011;4876;42.656;23.292;2022-07-03T07:39:43;13.13;;;8.63;;
9675;SDS011;4876;42.656;23.292;2022-07-03T07:42:10;9.02;;;8.20;;
9675;SDS011;4876;42.656;23.292;2022-07-03T07:44:38;9.20;;;8.15;;
9675;SDS011;4876;42.656;23.292;2022-07-03T07:47:06;9.35;;;8.43;;
9675;SDS011;4876;42.656;23.292;2022-07-03T07:49:33;13.60;;;7.90;;
9675;SDS011;4876;42.656;23.292;2022-07-03T07:52:00;9.10;;;7.53;;
9675;SDS011;4876;42.656;23.292;2022-07-03T07:54:27;9.98;;;7.68;;
9675;SDS011;4876;42.656;23.292;2022-07-03T07:56:55;8.93;;;8.02;;
9675;SDS011;4876;42.656;23.292;2022-07-03T07:59:22;9.80;;;8.80;;
9675;SDS011;4876;42.656;23.292;2022-07-03T08:01:49;9.82;;;8.52;;
9675;SDS011;4876;42.656;23.292;2022-07-03T08:04:34;14.13;;;7.68;;
9675;SDS011;4876;42.656;23.292;2022-07-03T08:07:18;10.90;;;8.60;;
9675;SDS011;4876;42.656;23.292;2022-07-03T08:09:45;11.50;;;7.82;;
9675;SDS011;4876;42.656;23.292;2022-07-03T08:12:12;8.68;;;7.43;;
9675;SDS011;4876;42.656;23.292;2022-07-03T08:14:39;9.30;;;8.00;;
9675;SDS011;4876;42.656;23.292;2022-07-03T08:17:06;11.63;;;7.50;;
9675;SDS011;4876;42.656;23.292;2022-07-03T08:19:34;9.52;;;7.60;;
9675;SDS011;4876;42.656;23.292;2022-07-03T08:22:01;8.43;;;7.47;;
9675;SDS011;4876;42.656;23.292;2022-07-03T08:24:28;9.30;;;7.60;;
9675;SDS011;4876;42.656;23.292;2022-07-03T08:26:55;11.10;;;6.78;;
9675;SDS011;4876;42.656;23.292;2022-07-03T08:29:22;7.35;;;6.65;;
9675;SDS011;4876;42.656;23.292;2022-07-03T08:31:48;7.47;;;6.10;;
9675;SDS011;4876;42.656;23.292;2022-07-03T08:34:15;12.30;;;8.00;;
9675;SDS011;4876;42.656;23.292;2022-07-03T08:36:44;9.27;;;7.65;;
9675;SDS011;4876;42.656;23.292;2022-07-03T08:39:11;11.30;;;6.43;;
9675;SDS011;4876;42.656;23.292;2022-07-03T08:41:39;10.30;;;6.03;;
9675;SDS011;4876;42.656;23.292;2022-07-03T08:44:07;7.18;;;6.47;;
9675;SDS011;4876;42.656;23.292;2022-07-03T08:46:35;10.15;;;7.00;;
9675;SDS011;4876;42.656;23.292;2022-07-03T08:49:04;8.13;;;7.25;;
9675;SDS011;4876;42.656;23.292;2022-07-03T08:51:34;9.98;;;6.78;;
9675;SDS011;4876;42.656;23.292;2022-07-03T08:54:02;7.35;;;6.65;;
9675;SDS011;4876;42.656;23.292;2022-07-03T08:56:32;6.05;;;5.45;;
9675;SDS011;4876;42.656;23.292;2022-07-03T08:58:58;6.35;;;5.65;;
9675;SDS011;4876;42.656;23.292;2022-07-03T09:01:28;7.80;;;6.20;;
9675;SDS011;4876;42.656;23.292;2022-07-03T09:03:57;6.28;;;5.68;;
9675;SDS011;4876;42.656;23.292;2022-07-03T09:06:24;8.13;;;6.50;;
9675;SDS011;4876;42.656;23.292;2022-07-03T09:08:59;6.88;;;5.38;;
9675;SDS011;4876;42.656;23.292;2022-07-03T09:11:28;10.52;;;5.53;;
9675;SDS011;4876;42.656;23.292;2022-07-03T09:13:55;6.55;;;5.75;;
9675;SDS011;4876;42.656;23.292;2022-07-03T09:16:22;5.38;;;4.93;;
9675;SDS011;4876;42.656;23.292;2022-07-03T09:18:49;5.03;;;4.53;;
9675;SDS011;4876;42.656;23.292;2022-07-03T09:21:16;5.15;;;4.65;;
9675;SDS011;4876;42.656;23.292;2022-07-03T09:23:43;8.82;;;4.72;;
9675;SDS011;4876;42.656;23.292;2022-07-03T09:26:13;7.18;;;4.85;;
9675;SDS011;4876;42.656;23.292;2022-07-03T09:28:43;3.17;;;2.90;;
9675;SDS011;4876;42.656;23.292;2022-07-03T09:31:12;7.05;;;4.15;;
9675;SDS011;4876;42.656;23.292;2022-07-03T09:33:47;4.78;;;4.28;;
9675;SDS011;4876;42.656;23.292;2022-07-03T09:36:20;5.00;;;4.32;;
9675;SDS011;4876;42.656;23.292;2022-07-03T09:38:48;7.05;;;3.85;;
9675;SDS011;4876;42.656;23.292;2022-07-03T09:41:15;8.70;;;4.85;;
9675;SDS011;4876;42.656;23.292;2022-07-03T09:43:42;6.35;;;3.50;;
9675;SDS011;4876;42.656;23.292;2022-07-03T09:46:10;6.50;;;5.30;;
9675;SDS011;4876;42.656;23.292;2022-07-03T09:48:38;7.50;;;5.35;;
9675;SDS011;4876;42.656;23.292;2022-07-03T09:51:10;10.07;;;5.65;;
9675;SDS011;4876;42.656;23.292;2022-07-03T09:53:54;11.63;;;4.72;;
9675;SDS011;4876;42.656;23.292;2022-07-03T09:56:22;5.22;;;4.07;;
9675;SDS011;4876;42.656;23.292;2022-07-03T09:59:05;4.32;;;3.80;;
9675;SDS011;4876;42.656;23.292;2022-07-03T10:01:34;11.45;;;5.05;;
9675;SDS011;4876;42.656;23.292;2022-07-03T10:04:08;6.78;;;5.22;;
9675;SDS011;4876;42.656;23.292;2022-07-03T10:06:46;5.22;;;4.72;;
9675;SDS011;4876;42.656;23.292;2022-07-03T10:09:18;8.55;;;4.13;;
9675;SDS011;4876;42.656;23.292;2022-07-03T10:11:46;6.32;;;3.97;;
9675;SDS011;4876;42.656;23.292;2022-07-03T10:14:14;7.20;;;3.53;;
9675;SDS011;4876;42.656;23.292;2022-07-03T10:16:42;4.20;;;3.80;;
9675;SDS011;4876;42.656;23.292;2022-07-03T10:19:12;4.38;;;3.53;;
9675;SDS011;4876;42.656;23.292;2022-07-03T10:21:41;3.97;;;3.60;;
9675;SDS011;4876;42.656;23.292;2022-07-03T10:24:09;3.70;;;3.40;;
9675;SDS011;4876;42.656;23.292;2022-07-03T10:26:39;3.97;;;3.67;;
9675;SDS011;4876;42.656;23.292;2022-07-03T10:29:08;6.93;;;4.00;;
9675;SDS011;4876;42.656;23.292;2022-07-03T10:31:42;3.70;;;3.35;;
9675;SDS011;4876;42.656;23.292;2022-07-03T10:34:12;7.05;;;3.60;;
9675;SDS011;4876;42.656;23.292;2022-07-03T10:36:42;3.55;;;3.08;;
9675;SDS011;4876;42.656;23.292;2022-07-03T10:39:11;9.52;;;3.83;;
9675;SDS011;4876;42.656;23.292;2022-07-03T10:41:43;6.63;;;4.72;;
9675;SDS011;4876;42.656;23.292;2022-07-03T10:44:31;5.32;;;4.28;;
9675;SDS011;4876;42.656;23.292;2022-07-03T10:50:13;12.93;;;4.05;;
9675;SDS011;4876;42.656;23.292;2022-07-03T10:52:41;4.93;;;3.50;;
9675;SDS011;4876;42.656;23.292;2022-07-03T10:55:08;5.95;;;3.60;;
9675;SDS011;4876;42.656;23.292;2022-07-03T10:57:37;6.70;;;3.63;;
9675;SDS011;4876;42.656;23.292;2022-07-03T11:00:11;4.30;;;3.60;;
9675;SDS011;4876;42.656;23.292;2022-07-03T11:02:40;3.40;;;3.10;;
9675;SDS011;4876;42.656;23.292;2022-07-03T11:05:11;3.97;;;3.53;;
9675;SDS011;4876;42.656;23.292;2022-07-03T11:07:43;4.00;;;3.55;;
9675;SDS011;4876;42.656;23.292;2022-07-03T11:10:29;4.15;;;3.17;;
9675;SDS011;4876;42.656;23.292;2022-07-03T11:12:58;3.97;;;3.65;;
9675;SDS011;4876;42.656;23.292;2022-07-03T11:15:26;5.35;;;3.92;;
9675;SDS011;4876;42.656;23.292;2022-07-03T11:18:07;4.30;;;3.72;;
9675;SDS011;4876;42.656;23.292;2022-07-03T11:27:16;4.68;;;4.15;;
9675;SDS011;4876;42.656;23.292;2022-07-03T11:29:54;5.18;;;4.68;;
9675;SDS011;4876;42.656;23.292;2022-07-03T11:35:44;3.78;;;3.28;;
9675;SDS011;4876;42.656;23.292;2022-07-03T11:38:16;5.45;;;4.20;;
9675;SDS011;4876;42.656;23.292;2022-07-03T11:40:50;6.50;;;3.88;;
9675;SDS011;4876;42.656;23.292;2022-07-03T11:43:18;4.70;;;3.90;;
9675;SDS011;4876;42.656;23.292;2022-07-03T11:45:46;3.72;;;3.40;;
9675;SDS011;4876;42.656;23.292;2022-07-03T11:48:15;4.88;;;4.07;;
9675;SDS011;4876;42.656;23.292;2022-07-03T11:50:43;4.10;;;3.70;;
9675;SDS011;4876;42.656;23.292;2022-07-03T11:53:15;4.30;;;3.63;;
9675;SDS011;4876;42.656;23.292;2022-07-03T11:55:52;3.92;;;3.53;;
9675;SDS011;4876;42.656;23.292;2022-07-03T11:58:21;4.65;;;4.00;;
9675;SDS011;4876;42.656;23.292;2022-07-03T12:00:48;8.23;;;3.70;;
9675;SDS011;4876;42.656;23.292;2022-07-03T12:03:15;5.95;;;4.25;;
9675;SDS011;4876;42.656;23.292;2022-07-03T12:05:54;4.75;;;4.18;;
9675;SDS011;4876;42.656;23.292;2022-07-03T12:08:23;5.82;;;4.53;;
9675;SDS011;4876;42.656;23.292;2022-07-03T12:11:01;4.05;;;3.75;;
9675;SDS011;4876;42.656;23.292;2022-07-03T12:13:32;7.82;;;4.68;;
9675;SDS011;4876;42.656;23.292;2022-07-03T12:16:02;4.03;;;3.70;;
9675;SDS011;4876;42.656;23.292;2022-07-03T12:18:44;5.07;;;3.90;;
9675;SDS011;4876;42.656;23.292;2022-07-03T12:21:13;5.35;;;4.20;;
9675;SDS011;4876;42.656;23.292;2022-07-03T12:23:41;5.18;;;4.53;;
9675;SDS011;4876;42.656;23.292;2022-07-03T12:26:10;4.70;;;4.28;;
9675;SDS011;4876;42.656;23.292;2022-07-03T12:28:38;4.40;;;4.00;;
9675;SDS011;4876;42.656;23.292;2022-07-03T12:31:05;5.15;;;4.70;;
9675;SDS011;4876;42.656;23.292;2022-07-03T12:33:32;5.00;;;4.50;;
9675;SDS011;4876;42.656;23.292;2022-07-03T12:36:07;4.97;;;4.00;;
9675;SDS011;4876;42.656;23.292;2022-07-03T12:38:35;5.40;;;4.40;;
9675;SDS011;4876;42.656;23.292;2022-07-03T12:41:03;4.82;;;4.13;;
9675;SDS011;4876;42.656;23.292;2022-07-03T12:43:37;6.63;;;4.60;;
9675;SDS011;4876;42.656;23.292;2022-07-03T12:46:14;4.82;;;4.18;;
9675;SDS011;4876;42.656;23.292;2022-07-03T12:48:46;5.05;;;4.65;;
9675;SDS011;4876;42.656;23.292;2022-07-03T12:51:14;6.32;;;5.13;;
9675;SDS011;4876;42.656;23.292;2022-07-03T12:53:41;17.13;;;6.03;;
9675;SDS011;4876;42.656;23.292;2022-07-03T12:56:09;11.10;;;5.10;;
9675;SDS011;4876;42.656;23.292;2022-07-03T12:58:39;6.38;;;4.07;;
9675;SDS011;4876;42.656;23.292;2022-07-03T13:01:27;5.35;;;4.28;;
9675;SDS011;4876;42.656;23.292;2022-07-03T13:03:55;4.82;;;4.43;;
9675;SDS011;4876;42.656;23.292;2022-07-03T13:06:23;4.97;;;4.53;;
9675;SDS011;4876;42.656;23.292;2022-07-03T13:08:51;7.57;;;4.65;;
9675;SDS011;4876;42.656;23.292;2022-07-03T13:11:26;4.75;;;4.32;;
9675;SDS011;4876;42.656;23.292;2022-07-03T13:14:02;4.63;;;4.22;;
9675;SDS011;4876;42.656;23.292;2022-07-03T13:16:34;4.70;;;4.22;;
9675;SDS011;4876;42.656;23.292;2022-07-03T13:19:03;4.47;;;4.07;;
9675;SDS011;4876;42.656;23.292;2022-07-03T13:21:31;6.28;;;4.80;;
9675;SDS011;4876;42.656;23.292;2022-07-03T13:23:58;6.78;;;3.88;;
9675;SDS011;4876;42.656;23.292;2022-07-03T13:26:25;5.82;;;4.53;;
9675;SDS011;4876;42.656;23.292;2022-07-03T13:28:52;6.55;;;3.95;;
9675;SDS011;4876;42.656;23.292;2022-07-03T13:31:20;4.65;;;4.05;;
9675;SDS011;4876;42.656;23.292;2022-07-03T13:33:47;5.32;;;4.22;;
9675;SDS011;4876;42.656;23.292;2022-07-03T13:36:14;7.85;;;4.80;;
9675;SDS011;4876;42.656;23.292;2022-07-03T13:38:43;7.03;;;4.68;;
9675;SDS011;4876;42.656;23.292;2022-07-03T13:41:10;5.40;;;4.65;;
9675;SDS011;4876;42.656;23.292;2022-07-03T13:43:37;4.78;;;4.28;;
9675;SDS011;4876;42.656;23.292;2022-07-03T13:46:04;7.15;;;4.28;;
9675;SDS011;4876;42.656;23.292;2022-07-03T13:48:32;10.25;;;4.63;;
9675;SDS011;4876;42.656;23.292;2022-07-03T13:50:59;6.57;;;5.35;;
9675;SDS011;4876;42.656;23.292;2022-07-03T13:53:26;4.50;;;4.10;;
9675;SDS011;4876;42.656;23.292;2022-07-03T13:55:54;7.72;;;4.93;;
9675;SDS011;4876;42.656;23.292;2022-07-03T13:58:21;6.50;;;4.30;;
9675;SDS011;4876;42.656;23.292;2022-07-03T14:00:48;8.70;;;4.75;;
9675;SDS011;4876;42.656;23.292;2022-07-03T14:03:15;4.97;;;4.57;;
9675;SDS011;4876;42.656;23.292;2022-07-03T14:05:43;5.93;;;4.50;;
9675;SDS011;4876;42.656;23.292;2022-07-03T14:08:10;5.05;;;4.47;;
9675;SDS011;4876;42.656;23.292;2022-07-03T14:10:37;5.97;;;4.78;;
9675;SDS011;4876;42.656;23.292;2022-07-03T14:13:05;6.85;;;5.05;;
9675;SDS011;4876;42.656;23.292;2022-07-03T14:15:32;5.28;;;4.78;;
9675;SDS011;4876;42.656;23.292;2022-07-03T14:17:59;13.68;;;4.53;;
9675;SDS011;4876;42.656;23.292;2022-07-03T14:20:27;4.65;;;4.13;;
9675;SDS011;4876;42.656;23.292;2022-07-03T14:22:55;4.70;;;4.25;;
9675;SDS011;4876;42.656;23.292;2022-07-03T14:25:22;4.82;;;3.90;;
9675;SDS011;4876;42.656;23.292;2022-07-03T14:27:49;5.60;;;4.82;;
9675;SDS011;4876;42.656;23.292;2022-07-03T14:30:33;5.40;;;4.90;;
9675;SDS011;4876;42.656;23.292;2022-07-03T14:33:17;7.30;;;5.20;;
9675;SDS011;4876;42.656;23.292;2022-07-03T14:35:44;6.32;;;4.82;;
9675;SDS011;4876;42.656;23.292;2022-07-03T14:38:12;4.57;;;4.18;;
9675;SDS011;4876;42.656;23.292;2022-07-03T14:40:39;8.23;;;4.47;;
9675;SDS011;4876;42.656;23.292;2022-07-03T14:43:06;4.97;;;3.92;;
9675;SDS011;4876;42.656;23.292;2022-07-03T14:45:33;8.65;;;5.38;;
9675;SDS011;4876;42.656;23.292;2022-07-03T14:47:59;15.80;;;3.45;;
9675;SDS011;4876;42.656;23.292;2022-07-03T14:50:26;8.73;;;5.10;;
9675;SDS011;4876;42.656;23.292;2022-07-03T14:52:53;5.63;;;4.75;;
9675;SDS011;4876;42.656;23.292;2022-07-03T14:55:21;5.72;;;5.05;;
9675;SDS011;4876;42.656;23.292;2022-07-03T14:57:58;5.53;;;5.03;;
9675;SDS011;4876;42.656;23.292;2022-07-03T15:00:30;6.80;;;4.95;;
9675;SDS011;4876;42.656;23.292;2022-07-03T15:03:03;4.82;;;4.32;;
9675;SDS011;4876;42.656;23.292;2022-07-03T15:05:31;6.13;;;4.93;;
9675;SDS011;4876;42.656;23.292;2022-07-03T15:08:02;4.75;;;4.22;;
9675;SDS011;4876;42.656;23.292;2022-07-03T15:10:42;7.88;;;4.72;;
9675;SDS011;4876;42.656;23.292;2022-07-03T15:13:09;7.00;;;4.70;;
9675;SDS011;4876;42.656;23.292;2022-07-03T15:15:36;4.68;;;4.28;;
9675;SDS011;4876;42.656;23.292;2022-07-03T15:18:05;5.25;;;3.85;;
9675;SDS011;4876;42.656;23.292;2022-07-03T15:20:34;5.72;;;5.00;;
9675;SDS011;4876;42.656;23.292;2022-07-03T15:23:03;9.55;;;4.68;;
9675;SDS011;4876;42.656;23.292;2022-07-03T15:25:32;5.20;;;4.00;;
9675;SDS011;4876;42.656;23.292;2022-07-03T15:28:03;5.30;;;4.75;;